Time;durP1;ratioP1;P1;durP2;ratioP2;P2;SDS_P1;SDS_P2;PMS_P1;PMS_P2;Temp;Humidity;BMP_temperature;BMP_pressure;BME280_temperature;BME280_humidity;BME280_pressure;Samples;Min_cycle;Max_cycle;Signal;HPM_P1;HPM_P2
2022/09/01 00:00:48;;;;;;;4.43;2.67;;;14.80;99.90;;;;;;5073296;28;20420;-60
2022/09/01 00:03:17;;;;;;;7.40;2.17;;;14.70;99.90;;;;;;5073296;28;20431;-59
2022/09/01 00:05:49;;;;;;;3.55;2.25;;;15.60;99.90;;;;;;5073246;28;20040;-60
2022/09/01 00:08:18;;;;;;;6.85;2.30;;;13.60;99.90;;;;;;5073539;28;20036;-60
2022/09/01 00:10:45;;;;;;;5.68;2.25;;;14.70;99.90;;;;;;5073239;28;20041;-60
2022/09/01 00:13:10;;;;;;;4.78;2.38;;;13.60;99.90;;;;;;5073181;28;20052;-59
2022/09/01 00:15:36;;;;;;;5.22;2.35;;;14.70;99.90;;;;;;5055187;28;20042;-60
2022/09/01 00:18:03;;;;;;;4.57;2.28;;;14.60;99.90;;;;;;5073306;28;20451;-59
2022/09/01 00:20:29;;;;;;;3.72;2.40;;;15.10;99.90;;;;;;5073353;28;20044;-61
2022/09/01 00:22:59;;;;;;;3.78;2.40;;;;;;;;;;5072947;28;20062;-60
2022/09/01 00:25:26;;;;;;;6.00;2.75;;;14.60;99.90;;;;;;5073043;28;20044;-59
2022/09/01 00:27:53;;;;;;;5.80;2.60;;;14.70;99.90;;;;;;5072882;28;20557;-59
2022/09/01 00:30:20;;;;;;;4.13;2.58;;;14.50;99.90;;;;;;5072713;28;20480;-59
2022/09/01 00:32:46;;;;;;;8.73;2.58;;;14.50;99.90;;;;;;5073180;28;20101;-59
2022/09/01 00:35:13;;;;;;;6.32;3.20;;;14.50;99.90;;;;;;5073125;28;20040;-59
2022/09/01 00:37:39;;;;;;;5.60;3.03;;;13.60;99.90;;;;;;5072928;28;20082;-59
2022/09/01 00:40:09;;;;;;;6.60;2.85;;;13.50;99.90;;;;;;5072826;28;20068;-59
2022/09/01 00:42:35;;;;;;;6.07;2.70;;;14.50;99.90;;;;;;5072819;28;20450;-60
2022/09/01 00:45:00;;;;;;;5.97;2.60;;;13.80;99.90;;;;;;5071787;28;20449;-59
2022/09/01 00:47:26;;;;;;;5.05;2.72;;;14.50;99.90;;;;;;5072987;28;20068;-59
2022/09/01 00:49:55;;;;;;;6.30;2.60;;;14.00;99.90;;;;;;5073125;28;20049;-59
2022/09/01 00:52:29;;;;;;;7.53;2.58;;;14.40;99.90;;;;;;5072930;28;20032;-59
2022/09/01 00:54:58;;;;;;;4.95;2.50;;;15.40;99.90;;;;;;5072782;28;20342;-59
2022/09/01 00:57:25;;;;;;;7.20;2.75;;;13.50;99.90;;;;;;5072642;28;20064;-60
2022/09/01 01:00:03;;;;;;;3.95;2.72;;;13.90;99.90;;;;;;5072033;28;20040;-61
2022/09/01 01:02:29;;;;;;;6.78;2.67;;;14.50;99.90;;;;;;5072595;28;20045;-60
2022/09/01 01:04:58;;;;;;;7.97;2.78;;;14.30;99.90;;;;;;5072191;28;20078;-60
2022/09/01 01:07:26;;;;;;;5.85;2.45;;;;;;;;;;5073472;28;20072;-60
2022/09/01 01:09:52;;;;;;;4.90;2.80;;;14.30;99.90;;;;;;5077111;28;20052;-60
2022/09/01 01:12:19;;;;;;;7.13;2.85;;;14.30;99.90;;;;;;5076427;28;20040;-61
2022/09/01 01:14:48;;;;;;;3.92;2.60;;;14.60;99.90;;;;;;5076317;28;20480;-61
2022/09/01 01:17:15;;;;;;;7.43;2.65;;;13.70;99.90;;;;;;5076540;28;20032;-61
2022/09/01 01:23:04;;;;;;;5.88;2.75;;;14.30;99.90;;;;;;5076044;28;20391;-60
2022/09/01 01:25:54;;;;;;;3.67;2.35;;;14.00;99.90;;;;;;5076587;28;20198;-60
2022/09/01 01:28:30;;;;;;;5.13;2.80;;;14.10;99.90;;;;;;5075154;28;20045;-60
2022/09/01 01:31:00;;;;;;;5.82;2.85;;;14.00;99.90;;;;;;5076272;28;20036;-60
2022/09/01 01:33:40;;;;;;;5.20;2.90;;;13.90;99.90;;;;;;5076352;28;20405;-61
2022/09/01 01:36:30;;;;;;;5.13;3.17;;;13.40;99.90;;;;;;5076244;28;20403;-61
2022/09/01 01:39:00;;;;;;;5.00;2.72;;;14.00;99.90;;;;;;5076153;28;20072;-61
2022/09/01 01:41:28;;;;;;;4.93;2.60;;;13.70;99.90;;;;;;5076140;28;20059;-60
2022/09/01 01:43:57;;;;;;;9.93;3.15;;;14.10;99.90;;;;;;5074657;28;20049;-60
2022/09/01 01:46:24;;;;;;;4.20;2.88;;;14.00;99.90;;;;;;5075883;28;20041;-60
2022/09/01 01:48:51;;;;;;;9.93;3.30;;;;;;;;;;5075749;28;20488;-60
2022/09/01 01:51:26;;;;;;;6.40;3.03;;;14.00;99.90;;;;;;5075856;28;20045;-60
2022/09/01 01:53:55;;;;;;;5.60;3.00;;;14.00;99.90;;;;;;5075988;28;20060;-60
2022/09/01 01:56:31;;;;;;;5.30;3.08;;;14.20;99.90;;;;;;5075865;28;20052;-60
2022/09/01 01:59:00;;;;;;;5.75;3.00;;;13.90;99.90;;;;;;5075908;28;20044;-60
2022/09/01 02:01:28;;;;;;;4.50;2.85;;;13.90;99.90;;;;;;5075457;28;20095;-60
2022/09/01 02:03:57;;;;;;;4.15;2.85;;;13.90;99.90;;;;;;5075424;28;20049;-60
2022/09/01 02:06:25;;;;;;;5.43;3.35;;;13.80;99.90;;;;;;5075589;28;20032;-60
2022/09/01 02:08:55;;;;;;;6.22;2.88;;;13.80;99.90;;;;;;5075670;28;20052;-61
2022/09/01 02:11:21;;;;;;;6.88;3.20;;;13.20;99.90;;;;;;5075402;28;20043;-60
2022/09/01 02:13:50;;;;;;;4.85;3.17;;;14.00;99.90;;;;;;5075335;28;20040;-61
2022/09/01 02:16:16;;;;;;;7.82;3.35;;;14.60;99.90;;;;;;5075290;28;20033;-61
2022/09/01 02:18:46;;;;;;;4.00;3.10;;;13.70;99.90;;;;;;5074267;28;20051;-61
2022/09/01 02:21:18;;;;;;;6.90;3.20;;;13.90;99.90;;;;;;5075341;28;20426;-60
2022/09/01 02:23:47;;;;;;;7.18;3.30;;;13.70;99.90;;;;;;5075643;28;20052;-60
2022/09/01 02:26:15;;;;;;;6.38;3.30;;;13.80;99.90;;;;;;5075087;28;20087;-61
2022/09/01 02:28:42;;;;;;;7.57;3.65;;;13.90;99.90;;;;;;5075054;28;20045;-60
2022/09/01 02:31:10;;;;;;;4.25;3.20;;;13.70;99.90;;;;;;5074855;28;20113;-60
2022/09/01 02:33:38;;;;;;;5.30;3.40;;;13.90;99.90;;;;;;5075219;28;20097;-61
2022/09/01 02:36:11;;;;;;;5.88;3.42;;;13.70;99.90;;;;;;5075336;28;20044;-61
2022/09/01 02:38:40;;;;;;;7.18;3.60;;;13.50;99.90;;;;;;5073905;28;20044;-60
2022/09/01 02:41:06;;;;;;;5.63;3.20;;;13.70;99.90;;;;;;5074791;28;20044;-61
2022/09/01 02:43:32;;;;;;;5.38;3.08;;;14.00;99.90;;;;;;5074639;28;20488;-60
2022/09/01 02:46:00;;;;;;;5.55;3.05;;;13.50;99.90;;;;;;5073478;28;20040;-60
2022/09/01 02:48:34;;;;;;;4.88;3.10;;;13.60;99.90;;;;;;5074939;28;20059;-61
2022/09/01 02:51:02;;;;;;;6.00;3.72;;;13.60;99.90;;;;;;5074769;28;20036;-60
2022/09/01 02:53:33;;;;;;;8.55;3.50;;;13.30;99.90;;;;;;5074670;28;20051;-60
2022/09/01 02:56:01;;;;;;;4.82;3.38;;;13.80;99.90;;;;;;5074554;28;20098;-60
2022/09/01 02:58:28;;;;;;;9.43;3.30;;;13.60;99.90;;;;;;5074670;28;20094;-60
2022/09/01 03:00:56;;;;;;;5.97;3.10;;;13.50;99.90;;;;;;5074304;28;20136;-60
2022/09/01 03:03:23;;;;;;;6.55;3.20;;;13.10;99.90;;;;;;5074250;28;20037;-60
2022/09/01 03:05:55;;;;;;;7.70;3.20;;;13.60;99.90;;;;;;5074362;28;20047;-60
2022/09/01 03:08:22;;;;;;;6.18;3.10;;;13.70;99.90;;;;;;5074336;28;20051;-60
2022/09/01 03:10:50;;;;;;;5.13;3.08;;;12.80;99.90;;;;;;5074415;28;20040;-60
2022/09/01 03:13:22;;;;;;;6.80;3.25;;;13.30;99.90;;;;;;5072937;28;20123;-60
2022/09/01 03:15:51;;;;;;;4.28;3.20;;;13.20;99.90;;;;;;5073104;28;20094;-60
2022/09/01 03:18:17;;;;;;;9.57;3.33;;;12.70;99.90;;;;;;5074029;28;20110;-60
2022/09/01 03:20:49;;;;;;;6.28;3.22;;;13.50;99.90;;;;;;5074303;28;20475;-60
2022/09/01 03:23:17;;;;;;;6.45;3.13;;;13.40;99.90;;;;;;5073805;28;20040;-60
2022/09/01 03:25:45;;;;;;;5.55;3.20;;;14.10;99.90;;;;;;5074182;28;20048;-60
2022/09/01 03:28:12;;;;;;;7.00;3.47;;;13.50;99.90;;;;;;5074176;28;20078;-60
2022/09/01 03:30:43;;;;;;;5.28;3.13;;;13.50;99.90;;;;;;5073624;28;20067;-60
2022/09/01 03:33:09;;;;;;;5.43;3.00;;;13.30;99.90;;;;;;5073757;28;20047;-61
2022/09/01 03:35:38;;;;;;;6.50;3.13;;;;;;;;;;5072608;28;20182;-60
2022/09/01 03:38:06;;;;;;;4.68;3.10;;;13.40;99.90;;;;;;5073885;28;20076;-60
2022/09/01 03:40:35;;;;;;;6.90;3.08;;;13.80;99.90;;;;;;5073748;28;20036;-60
2022/09/01 03:43:09;;;;;;;5.38;3.15;;;12.60;99.90;;;;;;5073482;28;20037;-60
2022/09/01 03:45:37;;;;;;;5.25;3.10;;;13.50;99.90;;;;;;5073933;28;20028;-60
2022/09/01 03:48:08;;;;;;;5.00;3.15;;;13.10;99.90;;;;;;5073574;28;20369;-60
2022/09/01 03:50:43;;;;;;;4.55;3.25;;;13.30;99.90;;;;;;5073517;28;20083;-60
2022/09/01 03:53:09;;;;;;;;;;;13.40;99.90;;;;;;5074101;28;20043;-60
2022/09/01 03:55:36;;;;;;;12.07;3.15;;;13.50;99.90;;;;;;5072478;28;20007;-60
2022/09/01 03:58:07;;;;;;;5.70;3.30;;;13.50;99.90;;;;;;5073427;28;20044;-60
2022/09/01 04:00:39;;;;;;;6.78;3.20;;;13.40;99.90;;;;;;5073375;28;20407;-61
2022/09/01 04:03:07;;;;;;;4.25;3.10;;;13.50;99.90;;;;;;5073269;28;20128;-60
2022/09/01 04:05:36;;;;;;;5.63;3.10;;;13.60;99.90;;;;;;5073540;28;20449;-60
2022/09/01 04:08:05;;;;;;;9.65;3.55;;;13.60;99.90;;;;;;5073110;28;20079;-60
2022/09/01 04:10:32;;;;;;;5.63;3.40;;;13.60;99.90;;;;;;5073430;28;20036;-60
2022/09/01 04:12:59;;;;;;;4.53;3.20;;;13.70;99.90;;;;;;5071878;28;20048;-60
2022/09/01 04:15:27;;;;;;;6.47;3.50;;;13.50;99.90;;;;;;5071974;28;20056;-60
2022/09/01 04:18:09;;;;;;;6.35;3.28;;;13.70;99.90;;;;;;5073440;28;20075;-60
2022/09/01 04:20:47;;;;;;;7.38;3.47;;;12.80;99.90;;;;;;5073062;28;20040;-60
2022/09/01 04:23:15;;;;;;;4.25;3.33;;;13.70;99.90;;;;;;5073295;28;20119;-60
2022/09/01 04:25:41;;;;;;;4.90;3.40;;;13.50;99.90;;;;;;5072876;28;20037;-60
2022/09/01 04:28:16;;;;;;;5.88;3.55;;;13.00;99.90;;;;;;5073144;28;20043;-60
2022/09/01 04:30:42;;;;;;;6.88;3.42;;;13.40;99.90;;;;;;5072007;28;20074;-60
2022/09/01 04:33:09;;;;;;;4.93;3.55;;;13.50;99.90;;;;;;5073145;28;20040;-60
2022/09/01 04:35:40;;;;;;;7.38;3.60;;;13.30;99.90;;;;;;5073195;28;20052;-60
2022/09/01 04:38:07;;;;;;;7.57;3.53;;;13.50;99.90;;;;;;5072882;28;20048;-60
2022/09/01 04:40:37;;;;;;;6.15;3.30;;;12.50;99.90;;;;;;5073292;28;20051;-60
2022/09/01 04:43:05;;;;;;;5.00;3.47;;;13.30;99.90;;;;;;5074959;28;20134;-60
2022/09/01 04:45:35;;;;;;;4.45;3.55;;;13.30;99.90;;;;;;5076877;28;20041;-60
2022/09/01 04:48:02;;;;;;;7.03;3.60;;;13.50;99.90;;;;;;5075555;28;20052;-60
2022/09/01 04:50:29;;;;;;;8.73;3.60;;;;;;;;;;5074898;28;20511;-60
2022/09/01 04:52:58;;;;;;;6.10;3.50;;;13.20;99.90;;;;;;5068029;28;20142;-60
2022/09/01 04:55:27;;;;;;;6.82;3.47;;;;;;;;;;5053873;28;20448;-60
2022/09/01 04:57:53;;;;;;;7.47;3.20;;;13.50;99.90;;;;;;5052468;28;20084;-60
2022/09/01 05:00:21;;;;;;;6.65;3.28;;;13.50;99.90;;;;;;5052262;28;20499;-60
2022/09/01 05:02:52;;;;;;;5.95;3.25;;;13.30;99.90;;;;;;5054513;28;20053;-60
2022/09/01 05:05:22;;;;;;;6.25;3.20;;;13.30;99.90;;;;;;5055286;28;20480;-60
2022/09/01 05:07:53;;;;;;;5.70;3.08;;;13.40;99.90;;;;;;5054290;28;20053;-60
2022/09/01 05:10:21;;;;;;;5.28;3.20;;;13.40;99.90;;;;;;5037927;28;20041;-60
2022/09/01 05:12:48;;;;;;;6.03;3.20;;;13.40;99.90;;;;;;5055460;28;20060;-60
2022/09/01 05:15:16;;;;;;;4.75;2.90;;;13.10;99.90;;;;;;5067841;28;20040;-60
2022/09/01 05:17:43;;;;;;;6.10;2.80;;;14.40;99.90;;;;;;5076143;28;20045;-61
2022/09/01 05:20:10;;;;;;;5.88;2.90;;;13.50;99.90;;;;;;5076390;28;20139;-60
2022/09/01 05:22:39;;;;;;;15.80;3.63;;;;;;;;;;5074607;28;20051;-60
2022/09/01 05:25:11;;;;;;;4.93;2.90;;;13.60;99.90;;;;;;5074886;28;20044;-60
2022/09/01 05:27:48;;;;;;;16.15;3.38;;;13.50;99.90;;;;;;5074216;28;20036;-60
2022/09/01 05:30:17;;;;;;;8.45;3.38;;;13.40;99.90;;;;;;5074833;28;20036;-60
2022/09/01 05:32:46;;;;;;;15.80;3.22;;;14.20;99.90;;;;;;5074758;28;20373;-61
2022/09/01 05:35:12;;;;;;;7.45;2.85;;;;;;;;;;5074820;28;20048;-61
2022/09/01 05:37:38;;;;;;;9.85;2.63;;;16.10;99.90;;;;;;5075598;28;20036;-61
2022/09/01 05:40:14;;;;;;;5.13;2.42;;;16.90;99.90;;;;;;5075146;28;20052;-61
2022/09/01 05:42:43;;;;;;;4.32;2.40;;;18.10;99.90;;;;;;5075668;28;20101;-61
2022/09/01 05:45:13;;;;;;;3.90;2.22;;;18.60;99.90;;;;;;5076102;28;20412;-61
2022/09/01 05:47:40;;;;;;;4.13;2.42;;;18.40;99.90;;;;;;5074915;28;20037;-61
2022/09/01 05:50:09;;;;;;;4.38;2.25;;;19.10;99.90;;;;;;5076062;28;20051;-61
2022/09/01 05:52:37;;;;;;;3.58;2.17;;;19.90;99.90;;;;;;5075735;28;20033;-61
2022/09/01 05:55:07;;;;;;;6.07;2.15;;;20.20;99.90;;;;;;5075608;28;20048;-60
2022/09/01 05:57:35;;;;;;;7.43;2.30;;;20.30;99.90;;;;;;5075467;28;20048;-60
2022/09/01 06:00:09;;;;;;;6.07;2.47;;;20.90;99.90;;;;;;5074064;28;21176;-60
2022/09/01 06:02:36;;;;;;;5.60;2.50;;;21.10;99.90;;;;;;5075738;28;20045;-60
2022/09/01 06:05:02;;;;;;;4.10;2.13;;;21.30;93.40;;;;;;5075492;28;20044;-60
2022/09/01 06:07:29;;;;;;;5.75;2.25;;;22.30;98.10;;;;;;5075521;28;20078;-60
2022/09/01 06:09:55;;;;;;;15.85;2.80;;;;;;;;;;5075103;28;20052;-60
2022/09/01 06:12:25;;;;;;;8.52;2.58;;;22.80;94.30;;;;;;5074104;28;20051;-60
2022/09/01 06:14:55;;;;;;;4.35;2.30;;;23.10;93.00;;;;;;5075465;28;20435;-60
2022/09/01 06:17:23;;;;;;;8.38;2.70;;;23.00;91.20;;;;;;5075327;28;20045;-60
2022/09/01 06:19:56;;;;;;;6.90;2.10;;;23.20;90.70;;;;;;5075152;28;20029;-60
2022/09/01 06:22:26;;;;;;;3.10;2.03;;;23.40;92.20;;;;;;5074986;28;20047;-59
2022/09/01 06:24:53;;;;;;;8.52;2.30;;;23.90;87.20;;;;;;5075379;28;20075;-58
2022/09/01 06:27:20;;;;;;;8.45;2.65;;;24.00;87.80;;;;;;5075182;28;20089;-59
2022/09/01 06:29:52;;;;;;;10.35;2.35;;;24.30;84.20;;;;;;5074910;28;20036;-58
2022/09/01 06:32:18;;;;;;;6.75;2.33;;;24.50;74.00;;;;;;5075015;28;20032;-60
2022/09/01 06:34:44;;;;;;;7.80;2.33;;;24.80;72.40;;;;;;5075179;28;20046;-60
2022/09/01 06:37:12;;;;;;;5.35;2.20;;;24.50;79.10;;;;;;5074657;28;20046;-60
2022/09/01 06:39:37;;;;;;;10.38;2.58;;;25.20;72.60;;;;;;5074761;28;20036;-60
2022/09/01 06:42:04;;;;;;;6.28;2.38;;;25.00;76.70;;;;;;5074933;28;20039;-60
2022/09/01 06:44:30;;;;;;;8.65;2.30;;;;;;;;;;5074830;28;20037;-60
2022/09/01 06:46:58;;;;;;;15.73;2.70;;;26.30;81.20;;;;;;5074623;28;20101;-59
2022/09/01 06:49:30;;;;;;;15.00;2.50;;;25.50;75.10;;;;;;5074763;28;20112;-58
2022/09/01 06:51:58;;;;;;;6.15;1.92;;;27.10;79.90;;;;;;5073364;28;20040;-59
2022/09/01 06:54:24;;;;;;;19.20;2.50;;;26.20;75.40;;;;;;5074494;28;20484;-59
2022/09/01 06:56:52;;;;;;;9.20;2.03;;;;;;;;;;5074899;28;20041;-59
2022/09/01 06:59:21;;;;;;;6.82;2.05;;;26.60;71.00;;;;;;5074743;28;20381;-59
2022/09/01 07:01:50;;;;;;;9.00;2.10;;;26.30;69.30;;;;;;5074297;28;20057;-59
2022/09/01 07:04:20;;;;;;;4.45;2.10;;;26.60;60.30;;;;;;5074707;28;20115;-59
2022/09/01 07:06:49;;;;;;;5.45;2.00;;;26.40;70.00;;;;;;5072414;28;20044;-59
2022/09/01 07:09:15;;;;;;;8.32;2.25;;;26.40;69.20;;;;;;5074404;28;20036;-59
2022/09/01 07:11:44;;;;;;;15.85;2.40;;;26.60;59.90;;;;;;5074280;28;20496;-59
2022/09/01 07:14:11;;;;;;;16.23;2.40;;;26.10;59.60;;;;;;5074146;28;20090;-62
2022/09/01 07:16:39;;;;;;;22.42;2.95;;;26.60;70.10;;;;;;5072723;28;20106;-59
2022/09/01 07:19:12;;;;;;;6.18;2.33;;;26.10;60.30;;;;;;5074250;28;20086;-59
2022/09/01 07:21:38;;;;;;;33.35;2.90;;;26.20;68.80;;;;;;5074349;28;20438;-59
2022/09/01 07:24:05;;;;;;;32.03;2.90;;;26.80;68.20;;;;;;5073886;28;20119;-59
2022/09/01 07:26:34;;;;;;;10.40;2.10;;;27.10;68.00;;;;;;5072544;28;20180;-59
2022/09/01 07:29:05;;;;;;;7.97;2.28;;;27.10;68.60;;;;;;5073987;28;20539;-59
2022/09/01 07:31:35;;;;;;;8.23;2.17;;;27.20;66.20;;;;;;5074209;28;20040;-59
2022/09/01 07:34:05;;;;;;;12.00;2.13;;;27.40;66.40;;;;;;5072574;28;20053;-59
2022/09/01 07:36:31;;;;;;;5.90;1.90;;;28.50;66.00;;;;;;5073710;28;20044;-59
2022/09/01 07:39:00;;;;;;;7.55;1.75;;;28.40;64.40;;;;;;5073775;28;20431;-59
2022/09/01 07:41:28;;;;;;;6.15;2.00;;;28.60;64.30;;;;;;5073637;28;20105;-59
2022/09/01 07:43:55;;;;;;;3.60;1.80;;;29.00;63.80;;;;;;5073590;28;20400;-59
2022/09/01 07:46:24;;;;;;;4.93;2.10;;;28.50;62.30;;;;;;5073704;28;20043;-59
2022/09/01 07:48:54;;;;;;;8.80;2.20;;;28.90;63.00;;;;;;5073511;28;20142;-59
2022/09/01 07:51:22;;;;;;;3.42;1.80;;;27.70;62.30;;;;;;5073572;28;20052;-59
2022/09/01 07:53:49;;;;;;;4.25;1.98;;;26.80;63.60;;;;;;5073448;28;20043;-59
2022/09/01 07:56:19;;;;;;;6.75;1.92;;;26.90;65.50;;;;;;5073557;28;20044;-59
2022/09/01 07:58:46;;;;;;;7.13;1.67;;;26.60;67.00;;;;;;5073918;28;20036;-59
2022/09/01 08:01:17;;;;;;;6.15;1.95;;;26.20;68.00;;;;;;5073260;28;20071;-59
2022/09/01 08:03:45;;;;;;;4.55;1.80;;;26.10;69.30;;;;;;5074008;28;20114;-58
2022/09/01 08:06:15;;;;;;;5.10;1.70;;;25.80;70.00;;;;;;5073514;28;20106;-59
2022/09/01 08:08:41;;;;;;;7.53;2.28;;;;;;;;;;5073047;28;20472;-60
2022/09/01 08:11:08;;;;;;;7.22;1.83;;;24.90;71.50;;;;;;5071888;28;20040;-58
2022/09/01 08:13:36;;;;;;;3.70;1.60;;;24.50;72.60;;;;;;5073475;28;20117;-58
2022/09/01 08:16:04;;;;;;;3.72;1.92;;;24.40;74.20;;;;;;5073185;28;20047;-58
2022/09/01 08:18:31;;;;;;;6.90;1.85;;;23.90;74.80;;;;;;5072270;28;20044;-58
2022/09/01 08:20:57;;;;;;;6.70;1.50;;;24.00;76.50;;;;;;5073134;28;20067;-58
2022/09/01 08:23:25;;;;;;;8.07;1.80;;;23.70;76.80;;;;;;5072877;28;20083;-58
2022/09/01 08:25:52;;;;;;;10.70;1.70;;;23.40;76.20;;;;;;5073332;28;20442;-58
2022/09/01 08:28:22;;;;;;;4.00;1.65;;;23.00;77.50;;;;;;5073196;28;20448;-58
2022/09/01 08:30:48;;;;;;;8.73;1.60;;;23.20;68.30;;;;;;5072899;28;20037;-58
2022/09/01 08:33:14;;;;;;;4.30;1.70;;;23.40;77.70;;;;;;5071641;28;20056;-58
2022/09/01 08:35:47;;;;;;;4.72;1.60;;;23.10;77.50;;;;;;5073035;28;20377;-58
2022/09/01 08:38:13;;;;;;;9.52;1.80;;;23.00;77.00;;;;;;5072867;28;20040;-58
2022/09/01 08:40:41;;;;;;;11.20;2.10;;;23.20;68.90;;;;;;5073005;28;20047;-60
2022/09/01 08:43:23;;;;;;;7.68;1.70;;;23.20;77.90;;;;;;5073075;28;20033;-58
2022/09/01 08:45:52;;;;;;;8.45;1.73;;;23.40;78.40;;;;;;5073064;28;20454;-58
2022/09/01 08:48:38;;;;;;;12.57;1.83;;;23.00;77.00;;;;;;5072787;28;20041;-58
2022/09/01 08:51:22;;;;;;;4.07;1.60;;;23.40;76.80;;;;;;5071727;28;20373;-58
2022/09/01 08:54:09;;;;;;;7.07;1.70;;;24.00;77.20;;;;;;5072967;28;20044;-61
2022/09/01 08:56:38;;;;;;;6.20;1.55;;;23.80;76.10;;;;;;5072605;28;20081;-61
2022/09/01 08:59:06;;;;;;;4.38;1.50;;;23.80;75.70;;;;;;5073010;28;20138;-61
2022/09/01 09:01:42;;;;;;;5.00;1.55;;;23.90;67.10;;;;;;5072555;28;20068;-58
2022/09/01 09:04:46;;;;;;;7.63;1.58;;;24.40;64.80;;;;;;5072893;28;20384;-58
2022/09/01 09:07:33;;;;;;;11.23;1.63;;;24.50;72.30;;;;;;5071210;28;20448;-59
2022/09/01 09:10:10;;;;;;;9.40;2.08;;;24.60;72.10;;;;;;5072877;28;20044;-58
2022/09/01 09:12:36;;;;;;;9.00;1.90;;;24.30;72.90;;;;;;5072706;28;20107;-59
2022/09/01 09:15:31;;;;;;;27.27;1.60;;;24.20;64.30;;;;;;5072530;28;20091;-58
2022/09/01 09:18:12;;;;;;;9.30;1.85;;;24.20;64.30;;;;;;5072528;28;20033;-58
2022/09/01 09:20:38;;;;;;;6.75;1.45;;;24.20;63.80;;;;;;5072928;28;20064;-58
2022/09/01 09:23:24;;;;;;;10.43;1.48;;;24.30;74.50;;;;;;5072414;28;20473;-58
2022/09/01 09:25:49;;;;;;;13.30;1.67;;;24.10;73.10;;;;;;5071059;28;20041;-58
2022/09/01 09:28:15;;;;;;;21.98;1.73;;;23.70;72.90;;;;;;5072893;28;20051;-58
2022/09/01 09:30:41;;;;;;;25.38;1.88;;;23.90;72.20;;;;;;5076245;28;20085;-58
2022/09/01 09:33:11;;;;;;;9.73;1.35;;;23.80;65.00;;;;;;5076182;28;20044;-58
2022/09/01 09:35:45;;;;;;;9.68;1.60;;;23.80;72.50;;;;;;5076101;28;20515;-58
2022/09/01 09:38:31;;;;;;;3.50;1.30;;;23.60;64.40;;;;;;5075980;28;20076;-58
2022/09/01 09:41:19;;;;;;;5.18;1.40;;;23.60;72.70;;;;;;5075676;28;20051;-58
2022/09/01 09:43:58;;;;;;;21.55;2.40;;;23.20;64.30;;;;;;5076009;28;20075;-58
2022/09/01 09:46:25;;;;;;;3.90;1.35;;;23.30;75.50;;;;;;5076377;28;20372;-58
2022/09/01 09:49:19;;;;;;;13.18;1.77;;;23.20;65.10;;;;;;5075660;28;20511;-58
2022/09/01 09:51:48;;;;;;;5.80;1.30;;;23.10;72.20;;;;;;5075870;28;20040;-58
2022/09/01 09:54:17;;;;;;;25.10;2.15;;;23.30;64.30;;;;;;5074727;28;20496;-58
2022/09/01 09:56:44;;;;;;;7.72;1.73;;;23.40;64.60;;;;;;5075684;28;20085;-62
2022/09/01 09:59:18;;;;;;;7.30;1.40;;;23.40;64.80;;;;;;5075534;28;20138;-62
2022/09/01 10:01:43;;;;;;;9.38;1.63;;;23.40;71.70;;;;;;5075416;28;20105;-62
2022/09/01 10:04:09;;;;;;;7.05;1.67;;;23.60;71.30;;;;;;5074180;28;20053;-62
2022/09/01 10:06:46;;;;;;;13.27;1.70;;;23.40;71.00;;;;;;5075573;28;20041;-62
2022/09/01 10:09:21;;;;;;;11.57;1.45;;;23.80;62.90;;;;;;5075526;28;20036;-62
2022/09/01 10:11:56;;;;;;;4.88;1.35;;;24.00;61.60;;;;;;5075519;28;20384;-62
2022/09/01 10:14:30;;;;;;;;;;;24.00;62.00;;;;;;5075954;28;20387;-62
2022/09/01 10:17:03;;;;;;;6.47;1.52;;;23.80;62.30;;;;;;5075181;28;19921;-62
2022/09/01 10:19:33;;;;;;;12.02;1.30;;;23.90;62.30;;;;;;5075424;28;20040;-62
2022/09/01 10:21:59;;;;;;;2.17;1.05;;;23.80;70.40;;;;;;5075382;28;20094;-61
2022/09/01 10:24:34;;;;;;;19.98;1.60;;;24.00;70.90;;;;;;5075247;28;20036;-62
2022/09/01 10:27:09;;;;;;;8.32;0.95;;;23.60;72.40;;;;;;5075222;28;20119;-62
2022/09/01 10:29:40;;;;;;;6.10;1.23;;;23.40;68.90;;;;;;5074918;28;20503;-62
2022/09/01 10:32:09;;;;;;;5.05;1.17;;;24.20;70.50;;;;;;5075111;28;20032;-61
2022/09/01 10:34:38;;;;;;;14.27;1.70;;;23.90;60.50;;;;;;5075010;28;20074;-62
2022/09/01 10:37:05;;;;;;;8.82;1.40;;;24.10;68.30;;;;;;5075088;28;20037;-62
2022/09/01 10:39:32;;;;;;;4.05;1.25;;;23.10;69.30;;;;;;5074648;28;20396;-62
2022/09/01 10:42:06;;;;;;;4.68;1.27;;;23.90;66.70;;;;;;5074391;28;20041;-62
2022/09/01 10:44:37;;;;;;;6.97;1.30;;;23.80;69.70;;;;;;5075043;28;20407;-62
2022/09/01 10:47:29;;;;;;;5.88;1.38;;;23.90;58.80;;;;;;5073353;28;20468;-62
2022/09/01 10:49:56;;;;;;;2.85;0.95;;;23.80;59.60;;;;;;5073481;28;20492;-62
2022/09/01 10:52:40;;;;;;;2.65;1.15;;;23.90;59.90;;;;;;5074979;28;20037;-61
2022/09/01 10:55:38;;;;;;;2.05;1.20;;;24.10;66.50;;;;;;5073321;28;20373;-61
2022/09/01 10:58:24;;;;;;;3.28;1.30;;;24.00;70.00;;;;;;5071430;28;20071;-62
2022/09/01 11:00:51;;;;;;;7.07;0.90;;;23.80;68.30;;;;;;5074544;28;20445;-61
2022/09/01 11:03:17;;;;;;;5.45;1.30;;;23.80;59.60;;;;;;5074217;28;20495;-62
2022/09/01 11:05:59;;;;;;;2.78;1.15;;;24.10;69.10;;;;;;5074220;28;20071;-62
2022/09/01 11:08:27;;;;;;;4.55;1.38;;;24.50;71.40;;;;;;5074149;28;20484;-62
2022/09/01 11:10:59;;;;;;;1.80;1.10;;;23.40;60.50;;;;;;5074345;28;20101;-62
2022/09/01 11:13:44;;;;;;;9.20;1.50;;;23.20;60.60;;;;;;5074456;28;20047;-61
2022/09/01 11:16:22;;;;;;;;;;;23.30;60.90;;;;;;5074717;28;20056;-62
2022/09/01 11:18:50;;;;;;;6.53;1.67;;;23.20;61.00;;;;;;5074403;28;19991;-62
2022/09/01 11:21:26;;;;;;;4.57;1.55;;;23.40;71.70;;;;;;5072957;28;20136;-62
2022/09/01 11:24:31;;;;;;;4.15;1.40;;;23.40;61.20;;;;;;5072665;28;20036;-62
2022/09/01 11:26:56;;;;;;;4.13;1.30;;;23.40;61.40;;;;;;5073832;28;20045;-62
2022/09/01 11:29:52;;;;;;;7.50;1.55;;;23.70;60.90;;;;;;5072618;28;20037;-62
2022/09/01 11:32:20;;;;;;;4.75;1.40;;;23.90;59.40;;;;;;5074197;28;20441;-62
2022/09/01 11:34:47;;;;;;;9.27;1.77;;;24.00;60.10;;;;;;5073685;28;20040;-62
2022/09/01 11:37:21;;;;;;;4.85;1.40;;;24.50;69.70;;;;;;5073636;28;20146;-62
2022/09/01 11:40:00;;;;;;;4.60;1.45;;;24.20;59.00;;;;;;5073909;28;20055;-62
2022/09/01 11:42:47;;;;;;;1.98;1.20;;;24.60;63.60;;;;;;5073631;28;20041;-62
2022/09/01 11:45:18;;;;;;;28.95;3.28;;;24.50;65.10;;;;;;5073540;28;20048;-62
2022/09/01 11:47:51;;;;;;;7.45;1.40;;;24.40;57.30;;;;;;5073933;28;20123;-62
2022/09/01 11:50:22;;;;;;;33.28;2.30;;;24.20;57.60;;;;;;5073508;28;20037;-63
2022/09/01 11:52:55;;;;;;;1.85;1.20;;;23.90;58.40;;;;;;5073620;28;20075;-62
2022/09/01 11:55:31;;;;;;;9.15;1.60;;;23.90;58.50;;;;;;5073547;28;20400;-62
2022/09/01 11:57:57;;;;;;;6.07;1.50;;;24.10;58.40;;;;;;5073430;28;20079;-62
2022/09/01 12:00:42;;;;;;;9.15;1.60;;;24.30;58.00;;;;;;5073361;28;20048;-63
2022/09/01 12:03:19;;;;;;;3.00;1.38;;;24.40;57.10;;;;;;5073546;28;20106;-63
2022/09/01 12:05:49;;;;;;;20.73;1.90;;;24.60;56.50;;;;;;5055341;28;20128;-63
2022/09/01 12:08:17;;;;;;;24.30;2.00;;;24.70;56.30;;;;;;5073212;28;20500;-64
2022/09/01 12:10:44;;;;;;;2.40;1.13;;;24.90;55.40;;;;;;5073529;28;20452;-63
2022/09/01 12:13:17;;;;;;;23.15;2.10;;;24.90;61.80;;;;;;5073377;28;20040;-63
2022/09/01 12:15:50;;;;;;;19.10;1.95;;;24.80;61.70;;;;;;5073602;28;20039;-63
2022/09/01 12:18:26;;;;;;;3.58;1.30;;;24.60;55.00;;;;;;5073522;28;20047;-63
2022/09/01 12:20:56;;;;;;;2.38;1.25;;;24.40;55.60;;;;;;5072152;28;20044;-63
2022/09/01 12:23:34;;;;;;;5.88;1.30;;;24.20;56.20;;;;;;5073291;28;20102;-63
2022/09/01 12:26:11;;;;;;;11.18;1.48;;;24.20;56.30;;;;;;5072331;28;20127;-63
2022/09/01 12:28:40;;;;;;;17.48;1.60;;;24.00;65.00;;;;;;5073123;28;20101;-63
2022/09/01 12:31:12;;;;;;;11.48;1.60;;;23.90;56.40;;;;;;5072950;28;20489;-63
2022/09/01 12:33:38;;;;;;;11.50;1.70;;;23.70;56.30;;;;;;5073229;28;20446;-63
2022/09/01 12:36:20;;;;;;;32.17;2.95;;;23.60;64.60;;;;;;5072977;28;20119;-63
2022/09/01 12:38:47;;;;;;;4.35;1.55;;;23.60;66.30;;;;;;5073197;28;20051;-63
2022/09/01 12:41:36;;;;;;;5.00;1.30;;;23.50;57.00;;;;;;5072959;28;20098;-63
2022/09/01 12:44:30;;;;;;;3.17;1.10;;;23.60;56.80;;;;;;5072864;28;20543;-62
2022/09/01 12:46:58;;;;;;;2.05;1.13;;;23.90;68.20;;;;;;5073139;28;20044;-63
2022/09/01 12:49:36;;;;;;;3.22;1.20;;;24.10;66.30;;;;;;5072901;28;20036;-63
2022/09/01 12:52:26;;;;;;;4.00;1.30;;;24.00;56.30;;;;;;5072857;28;20032;-63
2022/09/01 12:54:58;;;;;;;5.05;1.25;;;24.20;56.00;;;;;;5072940;28;20127;-63
2022/09/01 12:57:33;;;;;;;11.85;1.33;;;24.30;55.90;;;;;;5072924;28;20076;-63
2022/09/01 13:00:08;;;;;;;4.07;1.42;;;24.50;55.10;;;;;;5072591;28;20056;-63
2022/09/01 13:02:36;;;;;;;2.20;1.10;;;24.80;54.10;;;;;;5072488;28;20488;-63
2022/09/01 13:05:23;;;;;;;7.90;1.88;;;25.00;54.10;;;;;;5075944;28;20508;-63
2022/09/01 13:07:53;;;;;;;18.83;2.05;;;25.10;54.00;;;;;;5076830;28;20033;-63
2022/09/01 13:10:19;;;;;;;3.05;1.10;;;25.20;53.80;;;;;;5076555;28;20511;-64
2022/09/01 13:12:45;;;;;;;6.15;1.40;;;25.20;53.20;;;;;;5076543;28;20029;-63